Time;durP1;ratioP1;P1;durP2;ratioP2;P2;SDS_P1;SDS_P2;PMS_P1;PMS_P2;Temp;Humidity;BMP_temperature;BMP_pressure;BME280_temperature;BME280_humidity;BME280_pressure;Samples;Min_cycle;Max_cycle;Signal;HPM_P1;HPM_P2
2022/08/18 00:00:13;;;;;;;11.20;10.20;;;19.10;99.90;;;;;;5032815;28;20449;-68
2022/08/18 00:02:42;;;;;;;10.60;9.53;;;19.10;99.90;;;;;;5015739;28;20483;-68
2022/08/18 00:05:09;;;;;;;10.83;9.80;;;19.10;99.90;;;;;;5032213;28;20460;-68
2022/08/18 00:07:37;;;;;;;11.57;10.47;;;19.00;99.90;;;;;;5032552;28;20469;-67
2022/08/18 00:10:06;;;;;;;11.90;10.63;;;19.00;99.90;;;;;;5032301;28;20460;-68
2022/08/18 00:12:36;;;;;;;12.90;11.60;;;19.00;99.90;;;;;;5032033;28;21128;-68
2022/08/18 00:15:04;;;;;;;12.10;10.93;;;19.00;99.90;;;;;;5032317;28;20962;-67
2022/08/18 00:17:33;;;;;;;12.93;11.47;;;18.90;99.90;;;;;;5032177;28;20481;-68
2022/08/18 00:20:00;;;;;;;10.53;9.53;;;18.90;99.90;;;;;;5032041;28;20460;-67
2022/08/18 00:22:27;;;;;;;10.87;9.77;;;18.90;99.90;;;;;;5032208;28;20445;-68
2022/08/18 00:24:57;;;;;;;11.47;10.47;;;18.90;99.90;;;;;;5031529;28;20476;-69
2022/08/18 00:27:27;;;;;;;12.50;11.20;;;18.80;99.90;;;;;;5031687;28;20469;-68
2022/08/18 00:29:55;;;;;;;11.70;10.60;;;18.70;99.90;;;;;;5031655;28;20986;-68
2022/08/18 00:32:25;;;;;;;12.97;11.70;;;18.70;99.90;;;;;;5031990;28;20453;-68
2022/08/18 00:34:54;;;;;;;12.97;11.67;;;18.70;99.90;;;;;;5031664;28;20445;-68
2022/08/18 00:37:22;;;;;;;10.67;9.67;;;18.60;99.90;;;;;;5031678;28;20495;-68
2022/08/18 00:39:52;;;;;;;12.60;10.90;;;18.60;99.90;;;;;;5031486;28;20484;-66
2022/08/18 00:42:21;;;;;;;11.20;10.13;;;18.60;99.90;;;;;;5031722;28;20817;-68
2022/08/18 00:44:48;;;;;;;11.53;10.53;;;18.60;99.90;;;;;;5031428;28;20440;-68
2022/08/18 00:47:15;;;;;;;12.33;11.17;;;18.60;99.90;;;;;;5031556;28;20477;-67
2022/08/18 00:49:44;;;;;;;11.73;10.63;;;18.60;99.90;;;;;;5031438;28;20449;-68
2022/08/18 00:52:15;;;;;;;12.47;11.27;;;18.60;99.90;;;;;;5031262;28;20449;-67
2022/08/18 00:54:43;;;;;;;15.60;11.40;;;18.60;99.90;;;;;;5030261;28;20449;-67
2022/08/18 00:57:12;;;;;;;13.00;11.80;;;18.60;99.90;;;;;;5031399;28;20924;-67
2022/08/18 00:59:43;;;;;;;13.80;12.47;;;18.60;99.90;;;;;;5031165;28;20492;-67
2022/08/18 01:02:17;;;;;;;12.50;11.30;;;18.60;99.90;;;;;;5031166;28;20456;-68
2022/08/18 01:04:50;;;;;;;12.80;11.50;;;18.60;99.90;;;;;;5031000;28;20448;-68
2022/08/18 01:07:21;;;;;;;13.10;11.90;;;18.60;99.90;;;;;;5031217;28;20453;-68
2022/08/18 01:09:49;;;;;;;12.30;11.10;;;18.60;99.90;;;;;;5031241;28;20451;-67
2022/08/18 01:12:17;;;;;;;12.10;11.10;;;18.70;99.90;;;;;;5031164;28;20445;-68
2022/08/18 01:14:44;;;;;;;13.40;12.20;;;18.70;99.90;;;;;;5030801;28;20457;-68
2022/08/18 01:22:50;;;;;;;12.90;11.70;;;18.80;99.90;;;;;;5031052;28;20482;-68
2022/08/18 01:28:06;;;;;;;11.97;10.80;;;18.70;99.90;;;;;;5029169;28;20453;-68
2022/08/18 01:30:47;;;;;;;13.70;11.50;;;18.70;99.90;;;;;;5030694;28;20441;-69
2022/08/18 01:33:14;;;;;;;15.53;11.17;;;18.70;99.90;;;;;;5029913;28;20481;-68
2022/08/18 01:35:48;;;;;;;11.90;10.80;;;18.70;99.90;;;;;;5030876;28;20451;-68
2022/08/18 01:38:18;;;;;;;11.80;10.80;;;18.70;99.90;;;;;;5030245;28;20496;-68
2022/08/18 01:40:46;;;;;;;12.73;11.63;;;18.60;99.90;;;;;;5030388;28;20931;-68
2022/08/18 01:43:13;;;;;;;12.07;10.87;;;18.60;99.90;;;;;;5030238;28;20444;-68
2022/08/18 01:45:41;;;;;;;12.10;10.97;;;18.60;99.90;;;;;;5029672;28;20452;-68
2022/08/18 01:48:08;;;;;;;12.30;11.17;;;18.70;99.90;;;;;;5030231;28;20842;-68
2022/08/18 01:50:38;;;;;;;11.63;10.53;;;18.60;99.90;;;;;;5030085;28;20453;-68
2022/08/18 01:53:06;;;;;;;11.53;10.23;;;18.50;99.90;;;;;;5030433;28;20799;-68
2022/08/18 01:55:34;;;;;;;13.63;12.23;;;18.60;99.90;;;;;;5029928;28;20456;-68
2022/08/18 01:58:01;;;;;;;11.93;10.87;;;18.60;99.90;;;;;;5029982;28;20468;-67
2022/08/18 02:00:31;;;;;;;12.83;11.53;;;18.70;99.90;;;;;;5030066;28;20445;-68
2022/08/18 02:02:58;;;;;;;12.93;11.63;;;18.60;99.90;;;;;;5029967;28;20449;-68
2022/08/18 02:05:32;;;;;;;13.20;12.00;;;18.60;99.90;;;;;;5029696;28;20453;-69
2022/08/18 02:07:59;;;;;;;13.30;12.00;;;18.60;99.90;;;;;;5030113;28;20848;-68
2022/08/18 02:10:27;;;;;;;15.57;13.57;;;18.60;99.90;;;;;;5030373;28;20445;-68
2022/08/18 02:12:55;;;;;;;15.67;14.27;;;18.60;99.90;;;;;;5030538;28;20499;-68
2022/08/18 02:15:22;;;;;;;15.37;13.40;;;18.40;99.90;;;;;;5029961;28;20808;-68
2022/08/18 02:17:49;;;;;;;14.10;12.80;;;18.60;99.90;;;;;;5030552;28;20475;-68
2022/08/18 02:20:19;;;;;;;15.23;13.83;;;18.60;99.90;;;;;;5030299;28;20998;-68
2022/08/18 02:22:47;;;;;;;14.17;12.77;;;18.50;99.90;;;;;;5030091;28;20449;-68
2022/08/18 02:25:14;;;;;;;14.93;13.37;;;18.50;99.90;;;;;;5029645;28;20453;-68
2022/08/18 02:27:41;;;;;;;15.17;13.77;;;18.50;99.90;;;;;;5029832;28;20485;-69
2022/08/18 02:30:13;;;;;;;14.67;13.10;;;18.50;99.90;;;;;;5029556;28;20890;-68
2022/08/18 02:32:40;;;;;;;13.83;12.40;;;18.50;99.90;;;;;;5029809;28;20468;-68
2022/08/18 02:35:08;;;;;;;13.63;12.43;;;18.50;99.90;;;;;;5029168;28;20452;-67
2022/08/18 02:37:35;;;;;;;14.33;12.93;;;18.50;99.90;;;;;;5029650;28;20557;-68
2022/08/18 02:40:01;;;;;;;14.90;13.50;;;18.40;99.90;;;;;;5029394;28;20485;-69
2022/08/18 02:42:29;;;;;;;15.03;13.83;;;18.50;99.90;;;;;;5029427;28;20459;-69
2022/08/18 02:44:56;;;;;;;13.90;12.70;;;18.40;99.90;;;;;;5029287;28;20970;-68
2022/08/18 02:47:24;;;;;;;14.63;13.33;;;18.40;99.90;;;;;;5029347;28;20468;-68
2022/08/18 02:49:51;;;;;;;15.90;14.50;;;18.40;99.90;;;;;;5029497;28;20452;-68
2022/08/18 02:52:18;;;;;;;15.07;13.57;;;18.50;99.90;;;;;;5029545;28;20444;-68
2022/08/18 02:54:46;;;;;;;14.73;13.20;;;18.50;99.90;;;;;;5029131;28;20453;-69
2022/08/18 02:57:13;;;;;;;13.70;12.33;;;18.50;99.90;;;;;;5029386;28;20507;-68
2022/08/18 02:59:41;;;;;;;13.80;12.50;;;18.50;99.90;;;;;;5029408;28;20476;-68
2022/08/18 03:02:10;;;;;;;14.20;12.90;;;18.40;99.90;;;;;;5030151;28;21106;-68
2022/08/18 03:04:38;;;;;;;14.67;13.30;;;18.40;99.90;;;;;;5029069;28;20516;-68
2022/08/18 03:07:08;;;;;;;14.43;13.03;;;18.30;99.90;;;;;;5029212;28;20473;-68
2022/08/18 03:09:35;;;;;;;14.53;13.23;;;18.40;99.90;;;;;;5029299;28;21009;-68
2022/08/18 03:12:03;;;;;;;14.73;13.33;;;18.50;99.90;;;;;;5029428;28;20519;-68
2022/08/18 03:14:30;;;;;;;13.47;12.27;;;18.40;99.90;;;;;;5029204;28;20453;-68
2022/08/18 03:16:57;;;;;;;12.43;11.33;;;18.40;99.90;;;;;;5029405;28;20566;-68
2022/08/18 03:19:27;;;;;;;12.77;10.50;;;18.40;99.90;;;;;;5032899;28;21005;-68
2022/08/18 03:21:57;;;;;;;11.30;10.10;;;18.50;99.90;;;;;;5032861;28;20471;-68
2022/08/18 03:24:25;;;;;;;11.10;10.03;;;18.40;99.90;;;;;;5032922;28;20441;-66
2022/08/18 03:26:54;;;;;;;11.20;10.20;;;18.40;99.90;;;;;;5032704;28;20949;-69
2022/08/18 03:29:21;;;;;;;12.07;10.87;;;18.50;99.90;;;;;;5032842;28;20444;-68
2022/08/18 03:31:48;;;;;;;11.10;10.10;;;18.50;99.90;;;;;;5032752;28;20453;-69
2022/08/18 03:34:18;;;;;;;11.60;10.60;;;18.40;99.90;;;;;;5032746;28;20834;-68
2022/08/18 03:36:47;;;;;;;13.00;11.70;;;18.50;99.90;;;;;;5032150;28;20552;-66
2022/08/18 03:39:15;;;;;;;12.17;11.07;;;18.50;99.90;;;;;;5032814;28;20575;-67
2022/08/18 03:41:44;;;;;;;10.77;9.83;;;18.50;99.90;;;;;;5032740;28;20445;-68
2022/08/18 03:44:13;;;;;;;10.83;9.83;;;18.60;99.90;;;;;;5032466;28;20444;-68
2022/08/18 03:46:41;;;;;;;11.83;10.40;;;18.60;99.90;;;;;;5032194;28;20563;-69
2022/08/18 03:49:08;;;;;;;11.20;10.20;;;18.60;99.90;;;;;;5032205;28;20447;-68
2022/08/18 03:51:35;;;;;;;11.13;10.20;;;18.60;99.90;;;;;;5032759;28;20449;-68
2022/08/18 03:54:04;;;;;;;11.67;10.47;;;18.60;99.90;;;;;;5032673;28;20456;-68
2022/08/18 03:56:37;;;;;;;10.60;9.60;;;18.50;99.90;;;;;;5032077;28;20469;-69
2022/08/18 03:59:06;;;;;;;11.00;10.00;;;18.50;99.90;;;;;;5032402;28;20483;-68
2022/08/18 04:01:37;;;;;;;11.67;10.47;;;18.50;99.90;;;;;;5032321;28;20548;-68
2022/08/18 04:04:06;;;;;;;10.50;9.60;;;18.50;99.90;;;;;;5032340;28;21012;-67
2022/08/18 04:06:37;;;;;;;11.87;10.67;;;18.50;99.90;;;;;;5032174;28;20461;-68
2022/08/18 04:09:06;;;;;;;11.47;10.47;;;18.50;99.90;;;;;;5032332;28;20452;-68
2022/08/18 04:11:36;;;;;;;11.37;10.27;;;18.50;99.90;;;;;;5032134;28;20536;-68
2022/08/18 04:14:03;;;;;;;11.83;10.60;;;18.60;99.90;;;;;;5032092;28;20536;-69
2022/08/18 04:16:31;;;;;;;11.30;10.20;;;18.50;99.90;;;;;;5031674;28;20468;-68
2022/08/18 04:19:01;;;;;;;11.97;10.73;;;18.50;99.90;;;;;;5032194;28;20530;-68
2022/08/18 04:21:30;;;;;;;11.37;10.40;;;18.60;99.90;;;;;;5032267;28;20540;-68
2022/08/18 04:23:58;;;;;;;10.77;9.70;;;18.60;99.90;;;;;;5032119;28;20449;-68
2022/08/18 04:26:25;;;;;;;11.33;10.30;;;18.60;99.90;;;;;;5031814;28;20472;-69
2022/08/18 04:28:54;;;;;;;12.03;10.93;;;18.60;99.90;;;;;;5031745;28;20455;-68
2022/08/18 04:31:23;;;;;;;11.60;10.47;;;18.60;99.90;;;;;;5032123;28;20449;-68
2022/08/18 04:33:50;;;;;;;11.83;10.53;;;18.70;99.90;;;;;;5032103;28;20963;-68
2022/08/18 04:36:17;;;;;;;12.20;11.10;;;18.70;99.90;;;;;;5031703;28;20930;-68
2022/08/18 04:38:44;;;;;;;11.17;10.17;;;18.70;99.90;;;;;;5032018;28;20988;-68
2022/08/18 04:41:12;;;;;;;11.53;10.40;;;18.60;99.90;;;;;;5031969;28;20441;-67
2022/08/18 04:43:40;;;;;;;12.20;11.00;;;18.60;99.90;;;;;;5031661;28;20448;-68
2022/08/18 04:46:08;;;;;;;11.77;10.77;;;18.50;99.90;;;;;;5031513;28;20441;-66
2022/08/18 04:48:37;;;;;;;11.30;10.30;;;18.60;99.90;;;;;;5031551;28;20822;-68
2022/08/18 04:51:07;;;;;;;11.47;10.47;;;18.60;99.90;;;;;;5031503;28;20822;-68
2022/08/18 04:53:46;;;;;;;10.90;10.00;;;18.60;99.90;;;;;;5031290;28;20452;-68
2022/08/18 04:56:24;;;;;;;10.40;9.40;;;18.60;99.90;;;;;;5031165;28;20451;-66
2022/08/18 04:58:52;;;;;;;12.50;11.30;;;18.70;99.90;;;;;;5031409;28;20440;-68
2022/08/18 05:01:23;;;;;;;10.67;9.63;;;18.70;99.90;;;;;;5031284;28;20484;-68
2022/08/18 05:03:50;;;;;;;11.07;10.17;;;18.80;99.90;;;;;;5031208;28;20461;-68
2022/08/18 05:06:18;;;;;;;10.20;9.20;;;18.90;99.90;;;;;;5030658;28;20544;-68
2022/08/18 05:08:45;;;;;;;10.50;9.50;;;18.90;99.90;;;;;;5031072;28;20915;-69
2022/08/18 05:11:13;;;;;;;10.80;9.80;;;19.00;99.90;;;;;;5031138;28;20449;-68
2022/08/18 05:13:39;;;;;;;11.57;10.57;;;19.10;99.90;;;;;;5031205;28;20441;-68
2022/08/18 05:16:07;;;;;;;10.77;9.77;;;19.10;99.90;;;;;;5030664;28;20455;-68
2022/08/18 05:18:38;;;;;;;9.47;8.57;;;19.30;99.90;;;;;;5030903;28;21057;-68
2022/08/18 05:21:05;;;;;;;11.00;10.00;;;19.30;99.90;;;;;;5030757;28;20492;-68
2022/08/18 05:23:31;;;;;;;10.10;9.13;;;19.40;99.90;;;;;;5030912;28;20453;-68
2022/08/18 05:26:01;;;;;;;9.87;8.97;;;19.50;99.90;;;;;;5030422;28;20460;-68
2022/08/18 05:28:27;;;;;;;10.10;9.10;;;19.60;99.90;;;;;;5030601;28;20468;-68
2022/08/18 05:30:55;;;;;;;10.53;9.63;;;19.70;99.90;;;;;;5030669;28;20452;-69
2022/08/18 05:33:22;;;;;;;10.20;9.10;;;19.90;99.90;;;;;;5030478;28;20503;-69
2022/08/18 05:35:54;;;;;;;9.40;8.60;;;20.00;99.90;;;;;;5030221;28;20461;-68
2022/08/18 05:38:39;;;;;;;9.50;8.70;;;20.10;99.90;;;;;;5030326;28;20477;-68
2022/08/18 05:41:12;;;;;;;9.00;8.20;;;20.20;99.90;;;;;;5029826;28;20895;-68
2022/08/18 05:43:40;;;;;;;11.40;10.30;;;20.20;99.90;;;;;;5030329;28;20455;-68
2022/08/18 05:46:09;;;;;;;9.23;8.33;;;20.20;99.90;;;;;;5029922;28;20832;-67
2022/08/18 05:48:36;;;;;;;10.43;9.40;;;20.20;99.90;;;;;;5030576;28;20456;-67
2022/08/18 05:51:13;;;;;;;9.90;8.90;;;20.20;99.90;;;;;;5030479;28;20823;-68
2022/08/18 05:56:49;;;;;;;9.63;8.70;;;20.40;99.90;;;;;;5029790;28;20960;-68
2022/08/18 05:59:21;;;;;;;11.00;9.87;;;20.40;99.90;;;;;;5030095;28;20933;-69
2022/08/18 06:01:53;;;;;;;10.10;9.20;;;20.40;99.90;;;;;;5030154;28;21065;-69
2022/08/18 06:04:28;;;;;;;9.20;8.40;;;20.40;99.90;;;;;;5030014;28;20441;-68
2022/08/18 06:06:57;;;;;;;9.37;8.47;;;20.40;99.90;;;;;;5029797;28;20487;-68
2022/08/18 06:09:28;;;;;;;9.80;8.57;;;20.30;99.90;;;;;;5030130;28;20499;-69
2022/08/18 06:12:04;;;;;;;9.67;8.80;;;20.40;99.90;;;;;;5030101;28;20445;-68
2022/08/18 06:14:31;;;;;;;8.50;7.80;;;20.40;99.90;;;;;;5029604;28;20441;-69
2022/08/18 06:17:07;;;;;;;8.90;8.20;;;20.50;99.90;;;;;;5029663;28;20854;-69
2022/08/18 06:19:44;;;;;;;9.60;8.70;;;20.60;99.90;;;;;;5029982;28;20448;-69
2022/08/18 06:22:23;;;;;;;9.60;8.70;;;20.80;99.90;;;;;;5029796;28;20464;-69
2022/08/18 06:24:56;;;;;;;9.97;8.87;;;20.90;99.90;;;;;;5029509;28;20449;-68
2022/08/18 06:27:34;;;;;;;10.40;9.40;;;21.20;99.90;;;;;;5029601;28;20472;-69
2022/08/18 06:30:07;;;;;;;10.03;9.10;;;21.40;99.90;;;;;;5029920;28;20440;-69
2022/08/18 06:32:53;;;;;;;9.83;8.93;;;21.60;99.90;;;;;;5029984;28;20459;-69
2022/08/18 06:35:29;;;;;;;9.20;8.40;;;21.80;99.90;;;;;;5029457;28;20449;-68
2022/08/18 06:41:01;;;;;;;9.70;8.80;;;22.10;99.90;;;;;;5029864;28;21001;-67
2022/08/18 06:43:31;;;;;;;10.33;9.33;;;22.20;99.90;;;;;;5030156;28;20451;-69
2022/08/18 06:45:58;;;;;;;9.77;8.87;;;22.30;99.90;;;;;;5029717;28;21026;-68
2022/08/18 06:48:33;;;;;;;11.03;10.07;;;22.40;99.90;;;;;;5029711;28;20469;-68
2022/08/18 06:51:02;;;;;;;10.20;9.17;;;22.40;99.90;;;;;;5030113;28;20447;-68
2022/08/18 06:53:56;;;;;;;10.20;9.30;;;22.40;99.90;;;;;;5033936;28;20449;-69
2022/08/18 06:56:28;;;;;;;9.73;8.83;;;22.60;99.90;;;;;;5033522;28;20445;-68
2022/08/18 06:59:11;;;;;;;9.10;8.20;;;22.80;99.90;;;;;;5033533;28;20967;-68
2022/08/18 07:01:38;;;;;;;9.80;9.00;;;22.90;99.90;;;;;;5033525;28;20515;-69
2022/08/18 07:04:05;;;;;;;8.90;8.20;;;23.10;99.90;;;;;;5033302;28;20965;-69
2022/08/18 07:06:32;;;;;;;17.23;9.20;;;23.20;99.90;;;;;;5033076;28;20552;-69
2022/08/18 07:09:22;;;;;;;10.77;9.70;;;23.30;99.90;;;;;;5033285;28;20448;-68
2022/08/18 07:12:02;;;;;;;10.03;9.23;;;23.30;99.90;;;;;;5033421;28;20874;-69
2022/08/18 07:14:29;;;;;;;10.00;9.10;;;23.40;99.90;;;;;;5032923;28;20460;-68
2022/08/18 07:17:08;;;;;;;10.43;9.37;;;23.40;99.90;;;;;;5033083;28;20476;-68
2022/08/18 07:19:35;;;;;;;9.47;8.67;;;23.30;99.90;;;;;;5032836;28;20954;-69
2022/08/18 07:22:05;;;;;;;10.60;9.50;;;23.30;99.90;;;;;;5033137;28;21042;-68
2022/08/18 07:24:38;;;;;;;9.00;8.20;;;23.50;99.90;;;;;;5032827;28;20444;-68
2022/08/18 07:27:08;;;;;;;10.80;9.70;;;23.70;99.90;;;;;;5032853;28;21004;-68
2022/08/18 07:29:40;;;;;;;9.10;8.30;;;23.90;99.90;;;;;;5033069;28;20448;-69
2022/08/18 07:32:13;;;;;;;8.97;8.23;;;24.00;99.90;;;;;;5032860;28;20531;-68
2022/08/18 07:34:44;;;;;;;9.80;9.00;;;24.00;99.90;;;;;;5032787;28;20440;-69
2022/08/18 07:37:16;;;;;;;9.50;8.60;;;23.90;99.90;;;;;;5032932;28;20845;-69
2022/08/18 07:39:52;;;;;;;10.17;9.17;;;23.70;99.90;;;;;;5032635;28;20445;-68
2022/08/18 07:42:28;;;;;;;9.73;8.83;;;23.50;99.90;;;;;;5032753;28;20459;-69
2022/08/18 07:45:00;;;;;;;10.03;9.07;;;23.40;99.90;;;;;;5032449;28;20453;-69
2022/08/18 07:47:33;;;;;;;9.33;8.40;;;23.30;99.90;;;;;;5032668;28;21150;-68
2022/08/18 07:50:02;;;;;;;9.83;8.83;;;23.00;99.90;;;;;;5032934;28;20487;-69
2022/08/18 07:52:32;;;;;;;9.20;8.30;;;22.80;99.90;;;;;;5032494;28;20965;-69
2022/08/18 07:55:07;;;;;;;9.37;8.43;;;22.60;99.90;;;;;;5032154;28;20453;-68
2022/08/18 07:57:43;;;;;;;9.43;8.63;;;22.30;99.90;;;;;;5032580;28;20559;-68
2022/08/18 08:00:18;;;;;;;9.37;8.47;;;22.00;99.90;;;;;;5032306;28;20480;-68
2022/08/18 08:02:57;;;;;;;9.20;8.40;;;21.80;99.90;;;;;;5031422;28;20457;-68
2022/08/18 08:05:42;;;;;;;9.30;8.47;;;21.60;99.90;;;;;;5032062;28;20459;-68
2022/08/18 08:08:21;;;;;;;9.53;8.63;;;21.60;99.90;;;;;;5032571;28;20464;-68
2022/08/18 08:11:06;;;;;;;8.90;8.10;;;21.70;99.90;;;;;;5032191;28;20954;-69
2022/08/18 08:13:43;;;;;;;10.70;8.50;;;21.80;99.90;;;;;;5032220;28;20476;-68
2022/08/18 08:16:24;;;;;;;9.50;8.50;;;21.80;99.90;;;;;;5031727;28;20455;-67
2022/08/18 08:19:02;;;;;;;8.80;8.00;;;21.70;99.90;;;;;;5031972;28;20463;-68
2022/08/18 08:21:36;;;;;;;9.33;8.43;;;21.80;99.90;;;;;;5032043;28;20480;-68
2022/08/18 08:24:17;;;;;;;11.43;9.43;;;21.80;99.90;;;;;;5031900;28;20453;-68
2022/08/18 08:26:51;;;;;;;9.93;8.93;;;21.80;99.90;;;;;;5031522;28;20868;-68
2022/08/18 08:29:29;;;;;;;9.40;8.50;;;21.80;99.90;;;;;;5031993;28;20829;-68
2022/08/18 08:32:02;;;;;;;9.80;8.90;;;21.80;99.90;;;;;;5031869;28;20448;-69
2022/08/18 08:34:35;;;;;;;9.97;9.10;;;21.80;99.90;;;;;;5031430;28;20816;-68
2022/08/18 08:37:07;;;;;;;10.40;8.90;;;21.80;99.90;;;;;;5031785;28;20834;-68
2022/08/18 08:39:39;;;;;;;10.07;8.27;;;21.80;99.90;;;;;;5031920;28;20457;-69
2022/08/18 08:42:12;;;;;;;17.57;9.47;;;21.90;99.90;;;;;;5031686;28;20485;-69
2022/08/18 08:44:45;;;;;;;13.13;8.90;;;22.00;99.90;;;;;;5031402;28;20452;-69
2022/08/18 08:47:20;;;;;;;11.47;8.80;;;22.20;99.90;;;;;;5031466;28;20481;-69
2022/08/18 08:49:52;;;;;;;11.80;8.70;;;22.30;99.90;;;;;;5031815;28;20458;-68
2022/08/18 08:52:24;;;;;;;9.63;8.40;;;22.50;99.90;;;;;;5031645;28;20453;-68
2022/08/18 08:54:55;;;;;;;8.57;7.67;;;22.60;99.90;;;;;;5031483;28;20445;-69
2022/08/18 08:57:31;;;;;;;10.10;9.10;;;22.80;99.90;;;;;;5031647;28;20465;-69
2022/08/18 09:00:02;;;;;;;8.77;7.97;;;23.10;99.90;;;;;;5032000;28;20543;-69
2022/08/18 09:02:51;;;;;;;9.10;8.30;;;23.30;99.90;;;;;;5031701;28;20538;-69
2022/08/18 09:05:23;;;;;;;12.10;9.00;;;23.50;99.90;;;;;;4991165;28;20453;-69
2022/08/18 09:08:12;;;;;;;9.40;8.50;;;23.70;99.90;;;;;;5031226;28;20476;-69
2022/08/18 09:10:51;;;;;;;9.00;8.10;;;23.80;99.90;;;;;;5031467;28;20448;-68
2022/08/18 09:13:47;;;;;;;10.20;9.17;;;23.90;99.90;;;;;;5031169;28;20531;-68
2022/08/18 09:16:23;;;;;;;9.20;8.30;;;23.90;99.90;;;;;;5029657;28;20443;-69
2022/08/18 09:19:16;;;;;;;9.20;8.30;;;23.80;99.90;;;;;;5031189;28;20437;-69
2022/08/18 09:21:49;;;;;;;9.30;8.40;;;23.70;99.90;;;;;;5027656;28;20483;-68
2022/08/18 09:24:24;;;;;;;11.53;9.80;;;24.00;99.90;;;;;;5031076;28;20441;-67
2022/08/18 09:26:53;;;;;;;10.40;9.23;;;24.10;99.90;;;;;;5030525;28;20511;-68
2022/08/18 09:29:25;;;;;;;9.67;8.63;;;24.10;99.90;;;;;;5031030;28;20449;-68
2022/08/18 09:32:34;;;;;;;10.90;8.37;;;24.20;99.90;;;;;;5030609;28;20992;-68
2022/08/18 09:35:20;;;;;;;9.97;9.07;;;24.30;99.90;;;;;;5030232;28;20441;-67
2022/08/18 09:41:30;;;;;;;9.60;8.67;;;24.30;99.90;;;;;;5030689;28;20472;-68
2022/08/18 09:43:38;;;;;;;11.23;9.70;;;24.20;99.90;;;;;;5030351;28;20440;-67
2022/08/18 09:46:09;;;;;;;10.73;9.63;;;24.00;99.90;;;;;;5030353;28;20457;-68
2022/08/18 09:48:37;;;;;;;10.60;9.47;;;24.10;99.90;;;;;;5030593;28;20526;-67
2022/08/18 09:51:33;;;;;;;9.90;9.07;;;24.80;99.90;;;;;;5030397;28;20451;-69
2022/08/18 09:54:19;;;;;;;9.97;9.10;;;25.20;99.90;;;;;;5030269;28;20961;-68
2022/08/18 09:57:06;;;;;;;12.20;9.50;;;24.90;99.90;;;;;;5030173;28;20472;-68
2022/08/18 09:59:59;;;;;;;10.47;9.47;;;24.70;99.90;;;;;;5030239;28;20952;-68
2022/08/18 10:03:09;;;;;;;11.77;10.60;;;24.50;99.90;;;;;;5029933;28;20851;-68
2022/08/18 10:05:37;;;;;;;11.70;10.43;;;24.60;99.90;;;;;;5029871;28;20445;-68
2022/08/18 10:08:27;;;;;;;10.63;9.73;;;25.20;99.90;;;;;;5029883;28;21002;-68
2022/08/18 10:10:57;;;;;;;9.87;8.87;;;26.00;99.90;;;;;;5029973;28;20459;-69
2022/08/18 10:13:32;;;;;;;9.40;8.60;;;27.10;99.90;;;;;;5030100;28;20451;-69
2022/08/18 10:16:14;;;;;;;9.47;8.67;;;27.40;99.90;;;;;;5029752;28;20551;-68
2022/08/18 10:18:59;;;;;;;10.00;9.20;;;27.40;99.90;;;;;;5029949;28;20445;-67
2022/08/18 10:21:29;;;;;;;9.27;7.80;;;27.50;99.90;;;;;;5030137;28;20487;-69
2022/08/18 10:23:58;;;;;;;9.50;8.60;;;27.90;99.90;;;;;;5030037;28;20445;-68
2022/08/18 10:27:08;;;;;;;9.07;8.20;;;28.30;99.90;;;;;;5029224;28;20903;-69
2022/08/18 10:29:54;;;;;;;11.07;10.10;;;28.10;99.90;;;;;;5030052;28;20444;-69
2022/08/18 10:32:37;;;;;;;10.70;9.60;;;28.30;99.90;;;;;;5029982;28;20939;-66
2022/08/18 10:35:06;;;;;;;10.40;9.40;;;28.30;99.90;;;;;;5029610;28;20539;-69
2022/08/18 10:37:38;;;;;;;10.03;9.23;;;28.00;99.90;;;;;;5029605;28;20470;-68
2022/08/18 10:40:16;;;;;;;9.37;8.57;;;28.30;99.90;;;;;;5029929;28;20456;-69
2022/08/18 10:42:48;;;;;;;10.07;9.17;;;28.50;99.90;;;;;;5029879;28;20476;-68
2022/08/18 10:45:22;;;;;;;10.80;9.80;;;28.30;99.90;;;;;;5029439;28;20481;-68
2022/08/18 10:47:59;;;;;;;9.37;8.57;;;28.30;99.90;;;;;;5029509;28;20481;-68
2022/08/18 10:50:27;;;;;;;10.57;9.57;;;28.60;99.90;;;;;;5029484;28;20476;-70
2022/08/18 10:53:08;;;;;;;9.80;8.80;;;28.60;99.90;;;;;;5029687;28;20445;-68
2022/08/18 10:55:50;;;;;;;10.17;9.27;;;28.50;99.90;;;;;;5029330;28;20444;-67
2022/08/18 10:58:43;;;;;;;12.33;9.77;;;28.40;99.90;;;;;;5029485;28;20471;-68
2022/08/18 11:01:18;;;;;;;11.23;10.13;;;28.10;99.90;;;;;;5029366;28;21205;-67
2022/08/18 11:04:01;;;;;;;12.40;11.20;;;27.90;99.90;;;;;;5029762;28;20463;-67
2022/08/18 11:06:29;;;;;;;12.40;11.27;;;27.70;99.90;;;;;;5029455;28;20464;-67
2022/08/18 11:08:59;;;;;;;12.60;11.43;;;27.70;99.90;;;;;;5029706;28;20454;-67
2022/08/18 11:11:31;;;;;;;13.70;12.50;;;28.10;99.90;;;;;;5030024;28;20437;-67
2022/08/18 11:14:11;;;;;;;10.57;9.67;;;28.40;99.90;;;;;;5029870;28;20830;-68
2022/08/18 11:16:51;;;;;;;11.70;10.60;;;28.20;99.90;;;;;;5029550;28;20479;-67
2022/08/18 11:19:21;;;;;;;10.03;9.03;;;27.90;99.90;;;;;;5029662;28;20444;-69
2022/08/18 11:21:49;;;;;;;11.10;10.10;;;27.90;99.90;;;;;;5029747;28;20563;-67
2022/08/18 11:24:20;;;;;;;11.40;10.50;;;28.10;99.90;;;;;;5029579;28;20441;-66
2022/08/18 11:26:50;;;;;;;12.27;11.27;;;28.40;99.70;;;;;;5029022;28;20895;-69
2022/08/18 11:29:20;;;;;;;11.07;9.90;;;28.10;99.90;;;;;;5029349;28;20453;-67
2022/08/18 11:31:48;;;;;;;12.47;11.40;;;28.20;99.90;;;;;;5029133;28;20460;-67
2022/08/18 11:34:16;;;;;;;12.33;11.13;;;28.30;99.30;;;;;;5029368;28;20453;-69
2022/08/18 11:36:43;;;;;;;13.33;12.03;;;28.10;99.90;;;;;;5028969;28;20468;-67
2022/08/18 11:39:11;;;;;;;11.77;10.77;;;27.90;99.90;;;;;;5031304;28;20470;-69
2022/08/18 11:41:47;;;;;;;11.93;11.03;;;27.90;99.90;;;;;;5032764;28;20489;-70
2022/08/18 11:44:19;;;;;;;12.37;11.17;;;27.70;99.90;;;;;;5032559;28;20942;-68
2022/08/18 11:46:46;;;;;;;11.87;10.87;;;27.90;99.90;;;;;;5032382;28;20477;-69
2022/08/18 11:49:17;;;;;;;11.30;10.40;;;28.10;99.50;;;;;;5032537;28;20454;-68
2022/08/18 11:51:56;;;;;;;12.00;11.10;;;27.90;99.50;;;;;;5032718;28;20827;-68
2022/08/18 11:54:34;;;;;;;10.90;9.90;;;27.90;99.20;;;;;;5032565;28;20456;-68
2022/08/18 11:57:30;;;;;;;11.60;10.53;;;28.10;99.60;;;;;;5032579;28;20475;-68
2022/08/18 11:59:57;;;;;;;12.10;11.10;;;28.50;98.70;;;;;;5032503;28;20495;-68
2022/08/18 12:02:26;;;;;;;10.77;9.83;;;28.50;97.90;;;;;;5032244;28;20484;-68
2022/08/18 12:04:59;;;;;;;10.70;9.90;;;28.80;97.80;;;;;;5031975;28;20444;-67
2022/08/18 12:07:30;;;;;;;10.63;9.73;;;29.00;96.90;;;;;;5032550;28;20484;-69
2022/08/18 12:10:17;;;;;;;9.43;8.60;;;29.40;96.40;;;;;;5032576;28;20457;-69
2022/08/18 12:12:49;;;;;;;10.73;9.77;;;29.60;96.00;;;;;;5032273;28;20449;-68
2022/08/18 12:15:28;;;;;;;11.23;10.17;;;29.40;96.30;;;;;;5032042;28;20449;-69
2022/08/18 12:17:55;;;;;;;10.20;9.30;;;29.90;95.80;;;;;;5032203;28;20459;-68
2022/08/18 12:20:22;;;;;;;9.23;8.33;;;29.90;94.70;;;;;;5032184;28;20803;-67
2022/08/18 12:22:50;;;;;;;9.60;8.80;;;29.70;95.80;;;;;;5031859;28;20522;-69
2022/08/18 12:25:19;;;;;;;10.70;9.70;;;29.80;95.00;;;;;;5031754;28;20447;-69
2022/08/18 12:27:47;;;;;;;9.63;8.73;;;30.00;94.20;;;;;;5031684;28;20481;-68
2022/08/18 12:30:15;;;;;;;10.70;9.80;;;30.40;93.90;;;;;;5032072;28;20463;-68
2022/08/18 12:32:42;;;;;;;10.57;9.57;;;30.40;93.00;;;;;;5032016;28;20476;-68
2022/08/18 12:35:10;;;;;;;13.00;10.37;;;29.20;94.20;;;;;;5031666;28;20456;-68
2022/08/18 12:37:41;;;;;;;10.57;9.67;;;29.10;94.60;;;;;;5031813;28;20469;-69
2022/08/18 12:40:10;;;;;;;10.20;9.30;;;29.70;94.40;;;;;;5031816;28;20456;-68
2022/08/18 12:42:37;;;;;;;10.70;9.77;;;30.40;93.00;;;;;;5031437;28;20477;-69
2022/08/18 12:45:07;;;;;;;10.93;9.93;;;30.50;92.30;;;;;;5031609;28;20552;-69
2022/08/18 12:47:39;;;;;;;13.70;10.50;;;30.50;92.30;;;;;;5031444;28;20526;-68
2022/08/18 12:50:07;;;;;;;10.80;9.63;;;30.90;91.50;;;;;;5031421;28;21140;-69
2022/08/18 12:52:34;;;;;;;11.30;10.40;;;31.40;91.10;;;;;;5031534;28;20445;-68
2022/08/18 12:55:01;;;;;;;10.73;9.73;;;31.30;91.50;;;;;;5030987;28;20455;-69
2022/08/18 12:57:28;;;;;;;10.73;9.57;;;31.10;90.80;;;;;;5031486;28;20491;-69
2022/08/18 12:59:55;;;;;;;10.23;9.23;;;30.90;90.90;;;;;;5031418;28;20555;-69
2022/08/18 13:02:23;;;;;;;11.10;10.10;;;31.40;90.10;;;;;;5031254;28;20476;-69
2022/08/18 13:04:50;;;;;;;12.93;11.60;;;31.70;89.80;;;;;;5031053;28;20459;-69
2022/08/18 13:07:17;;;;;;;10.40;9.47;;;32.30;87.90;;;;;;5031120;28;21004;-69
2022/08/18 13:09:44;;;;;;;11.03;10.03;;;31.90;86.40;;;;;;5030985;28;20950;-68
2022/08/18 13:12:12;;;;;;;11.57;10.47;;;31.40;88.60;;;;;;5031265;28;20536;-69
2022/08/18 13:14:39;;;;;;;9.70;8.90;;;30.90;90.30;;;;;;5031095;28;20450;-68
2022/08/18 13:17:06;;;;;;;11.10;9.27;;;30.80;90.90;;;;;;5031165;28;20515;-69